createdAt,value
2018-12-15T00:00:21.068Z,42.50
2018-12-15T00:02:51.096Z,46.40
2018-12-15T00:05:21.143Z,43.50
2018-12-15T00:07:49.172Z,43.17
2018-12-15T00:10:17.211Z,45.07
2018-12-15T00:12:45.217Z,44.10
2018-12-15T00:15:13.208Z,43.37
2018-12-15T00:17:41.172Z,44.40
2018-12-15T00:20:09.466Z,42.70
2018-12-15T00:22:37.559Z,43.07
2018-12-15T00:25:05.612Z,44.80
2018-12-15T00:27:33.648Z,40.60
2018-12-15T00:30:01.672Z,44.43
2018-12-15T00:32:29.667Z,41.30
2018-12-15T00:34:57.685Z,42.23
2018-12-15T00:37:25.669Z,44.03
2018-12-15T00:39:55.711Z,43.47
2018-12-15T00:42:33.391Z,42.23
2018-12-15T00:45:01.364Z,43.57
2018-12-15T00:47:29.390Z,42.40
2018-12-15T00:49:57.401Z,41.90
2018-12-15T00:52:25.371Z,40.07
2018-12-15T00:55:10.277Z,40.97
2018-12-15T00:57:38.249Z,41.97
2018-12-15T01:00:06.651Z,43.00
2018-12-15T01:02:35.706Z,45.57
2018-12-15T01:05:05.529Z,43.50
2018-12-15T01:07:33.510Z,43.17
2018-12-15T01:10:01.521Z,39.97
2018-12-15T01:12:29.553Z,45.33
2018-12-15T01:14:57.849Z,38.97
2018-12-15T01:17:25.905Z,45.63
2018-12-15T01:19:53.884Z,42.43
2018-12-15T01:22:21.876Z,44.00
2018-12-15T01:24:49.889Z,43.30
2018-12-15T01:27:18.013Z,44.27
2018-12-15T01:29:45.982Z,42.57
2018-12-15T01:32:13.984Z,43.27
2018-12-15T01:34:41.976Z,43.83
2018-12-15T01:37:09.923Z,43.77
2018-12-15T01:39:38.691Z,44.00
2018-12-15T01:42:06.710Z,42.50
2018-12-15T01:44:34.717Z,43.77
2018-12-15T01:47:02.717Z,42.83
2018-12-15T01:49:30.675Z,44.63
2018-12-15T01:51:58.656Z,44.93
2018-12-15T01:54:26.674Z,44.83
2018-12-15T01:56:54.707Z,40.83
2018-12-15T01:59:22.690Z,44.50
2018-12-15T02:01:50.681Z,44.33
2018-12-15T02:04:18.646Z,46.20
2018-12-15T02:06:46.646Z,45.00
2018-12-15T02:09:15.049Z,44.77
2018-12-15T02:11:44.848Z,48.30
2018-12-15T02:14:12.844Z,44.57
2018-12-15T02:16:40.872Z,45.80
2018-12-15T02:19:08.827Z,42.87
2018-12-15T02:21:36.801Z,48.43
2018-12-15T02:24:04.796Z,46.20
2018-12-15T02:26:32.762Z,49.40
2018-12-15T02:29:01.317Z,46.83
2018-12-15T02:31:29.327Z,44.60
2018-12-15T02:33:57.311Z,45.53
2018-12-15T02:36:25.280Z,46.40
2018-12-15T02:38:53.579Z,48.93
2018-12-15T02:41:21.568Z,43.40
2018-12-15T02:43:49.574Z,45.67
2018-12-15T02:46:17.540Z,44.77
2018-12-15T02:48:45.546Z,43.73
2018-12-15T02:51:13.487Z,45.97
2018-12-15T02:53:41.463Z,44.50
2018-12-15T02:56:09.417Z,44.40
2018-12-15T02:58:37.393Z,46.90
2018-12-15T03:01:05.415Z,47.80
2018-12-15T03:03:33.379Z,44.87
2018-12-15T03:06:01.377Z,47.13
2018-12-15T03:08:29.410Z,45.37
2018-12-15T03:10:57.370Z,45.47
2018-12-15T03:13:25.346Z,43.90
2018-12-15T03:15:53.357Z,46.87
2018-12-15T03:18:21.328Z,45.63
2018-12-15T03:20:59.745Z,47.47
2018-12-15T03:23:27.841Z,44.07
2018-12-15T03:25:56.004Z,45.30
2018-12-15T03:28:24.283Z,45.77
2018-12-15T03:30:52.242Z,46.93
2018-12-15T03:33:20.214Z,43.70
2018-12-15T03:35:48.224Z,47.17
2018-12-15T03:38:16.211Z,44.27
2018-12-15T03:40:44.198Z,45.00
2018-12-15T03:43:12.217Z,44.83
2018-12-15T03:45:40.736Z,45.77
2018-12-15T03:48:08.742Z,44.83
2018-12-15T03:50:36.732Z,49.03
2018-12-15T03:53:04.787Z,46.73
2018-12-15T03:55:32.749Z,45.07
2018-12-15T03:58:00.766Z,48.00
2018-12-15T04:00:28.783Z,49.17
2018-12-15T04:02:56.766Z,45.07
2018-12-15T04:05:24.777Z,45.73
2018-12-15T04:07:52.742Z,47.33
2018-12-15T04:10:20.725Z,46.37
2018-12-15T04:12:48.702Z,46.43
2018-12-15T04:15:16.673Z,47.13
2018-12-15T04:17:44.644Z,46.60
2018-12-15T04:20:12.609Z,44.40
2018-12-15T04:22:40.615Z,47.30
2018-12-15T04:25:08.636Z,45.83
2018-12-15T04:27:36.659Z,47.93
2018-12-15T04:30:07.950Z,50.23
2018-12-15T04:32:36.599Z,46.57
2018-12-15T04:35:04.887Z,50.00
2018-12-15T04:37:32.882Z,51.33
2018-12-15T04:40:00.928Z,50.70
2018-12-15T04:42:28.925Z,48.23
2018-12-15T04:44:56.929Z,48.73
2018-12-15T04:47:24.928Z,46.40
2018-12-15T04:49:52.881Z,46.97
2018-12-15T04:52:20.882Z,48.40
2018-12-15T04:54:48.876Z,51.73
2018-12-15T04:57:16.886Z,50.03
2018-12-15T04:59:44.964Z,53.53
2018-12-15T05:02:12.974Z,48.70
2018-12-15T05:04:40.926Z,50.37
2018-12-15T05:07:08.886Z,51.23
2018-12-15T05:09:36.884Z,52.57
2018-12-15T05:12:04.846Z,48.20
2018-12-15T05:14:32.815Z,51.37
2018-12-15T05:17:00.822Z,50.63
2018-12-15T05:19:28.802Z,55.27
2018-12-15T05:21:56.977Z,53.17
2018-12-15T05:24:24.942Z,51.70
2018-12-15T05:26:52.912Z,51.87
2018-12-15T05:29:20.926Z,53.23
2018-12-15T05:31:48.938Z,55.13
2018-12-15T05:34:16.903Z,52.17
2018-12-15T05:36:44.877Z,49.77
2018-12-15T05:39:12.882Z,50.30
2018-12-15T05:41:40.860Z,54.60
2018-12-15T05:44:08.907Z,55.17
2018-12-15T05:46:37.048Z,54.90
2018-12-15T05:49:05.025Z,54.13
2018-12-15T05:51:32.998Z,54.70
2018-12-15T05:54:01.025Z,53.13
2018-12-15T05:56:28.994Z,47.73
2018-12-15T05:58:57.076Z,53.90
2018-12-15T06:01:25.192Z,49.87
2018-12-15T06:03:53.160Z,51.73
2018-12-15T06:06:21.144Z,55.00
2018-12-15T06:08:49.122Z,55.80
2018-12-15T06:11:17.106Z,52.97
2018-12-15T06:13:45.101Z,52.73
2018-12-15T06:16:13.074Z,54.30
2018-12-15T06:18:41.038Z,54.70
2018-12-15T06:21:09.003Z,53.47
2018-12-15T06:23:37.012Z,53.90
2018-12-15T06:26:04.969Z,56.97
2018-12-15T06:28:32.961Z,53.30
2018-12-15T06:31:00.967Z,54.57
2018-12-15T06:33:29.009Z,54.83
2018-12-15T06:36:07.704Z,53.70
2018-12-15T06:38:45.350Z,55.73
2018-12-15T06:41:22.213Z,52.30
2018-12-15T06:43:59.429Z,53.07
2018-12-15T06:46:39.494Z,54.47
2018-12-15T06:49:15.598Z,55.77
2018-12-15T06:51:53.559Z,56.70
2018-12-15T06:54:32.805Z,54.03
2018-12-15T06:57:12.505Z,53.13
2018-12-15T06:59:41.884Z,58.77
2018-12-15T07:02:09.890Z,55.20
2018-12-15T07:04:38.595Z,54.23
2018-12-15T07:07:06.982Z,54.53
2018-12-15T07:09:34.952Z,59.47
2018-12-15T07:12:03.025Z,51.10
2018-12-15T07:14:31.050Z,58.07
2018-12-15T07:16:59.545Z,57.23
2018-12-15T07:19:28.052Z,58.23
2018-12-15T07:21:56.030Z,60.03
2018-12-15T07:24:24.084Z,55.60
2018-12-15T07:26:52.649Z,59.30
2018-12-15T07:29:20.643Z,58.37
2018-12-15T07:31:48.653Z,60.47
2018-12-15T07:34:23.125Z,60.73
2018-12-15T07:37:01.522Z,57.13
2018-12-15T07:39:37.755Z,57.00
2018-12-15T07:42:17.781Z,59.20
2018-12-15T07:44:57.419Z,57.90
2018-12-15T07:47:40.698Z,58.67
2018-12-15T07:50:20.201Z,59.70
2018-12-15T07:52:54.610Z,60.83
2018-12-15T07:55:32.020Z,56.73
2018-12-15T07:58:01.002Z,55.30
2018-12-15T08:00:28.991Z,58.93
2018-12-15T08:02:57.084Z,56.17
2018-12-15T08:05:25.051Z,55.87
2018-12-15T08:07:53.397Z,58.77
2018-12-15T08:10:23.827Z,56.03
2018-12-15T08:12:59.571Z,55.10
2018-12-15T08:15:28.849Z,56.47
2018-12-15T08:17:56.916Z,52.80
2018-12-15T08:20:24.937Z,54.10
2018-12-15T08:22:53.051Z,50.97
2018-12-15T08:25:21.091Z,58.10
2018-12-15T08:27:49.080Z,54.27
2018-12-15T08:30:17.070Z,53.23
2018-12-15T08:32:46.947Z,52.40
2018-12-15T08:35:26.554Z,52.40
2018-12-15T08:38:04.378Z,56.07
2018-12-15T08:40:43.319Z,52.63
2018-12-15T08:43:21.457Z,55.07
2018-12-15T08:46:01.107Z,57.93
2018-12-15T08:48:39.507Z,53.73
2018-12-15T08:51:15.733Z,53.73
2018-12-15T08:53:53.343Z,55.60
2018-12-15T08:56:33.407Z,57.30
2018-12-15T08:59:02.752Z,53.67
2018-12-15T09:01:30.724Z,57.67
2018-12-15T09:03:58.736Z,56.67
2018-12-15T09:06:26.766Z,49.20
2018-12-15T09:08:55.393Z,53.33
2018-12-15T09:11:24.052Z,51.03
2018-12-15T09:13:52.048Z,48.30
2018-12-15T09:16:26.218Z,47.17
2018-12-15T09:18:50.789Z,45.93
2018-12-15T09:21:19.615Z,45.80
2018-12-15T09:23:48.104Z,46.70
2018-12-15T09:26:16.827Z,44.33
2018-12-15T09:28:45.442Z,40.60
2018-12-15T09:31:14.160Z,38.00
2018-12-15T09:33:42.659Z,42.57
2018-12-15T09:36:21.973Z,42.73
2018-12-15T09:39:00.022Z,39.53
2018-12-15T09:41:39.793Z,39.37
2018-12-15T09:44:17.652Z,51.03
2018-12-15T09:47:00.440Z,43.77
2018-12-15T09:49:40.839Z,40.13
2018-12-15T09:52:18.523Z,42.60
2018-12-15T09:54:58.633Z,41.10
2018-12-15T09:57:33.964Z,45.83
2018-12-15T10:00:02.859Z,41.90
2018-12-15T10:02:32.599Z,46.93
2018-12-15T10:05:01.480Z,41.13
2018-12-15T10:07:30.716Z,46.50
2018-12-15T10:10:00.045Z,39.13
2018-12-15T10:12:29.395Z,38.20
2018-12-15T10:14:58.247Z,38.27
2018-12-15T10:17:26.950Z,41.10
2018-12-15T10:19:55.943Z,37.33
2018-12-15T10:22:24.752Z,36.17
2018-12-15T10:24:53.414Z,35.27
2018-12-15T10:27:22.158Z,35.97
2018-12-15T10:29:56.449Z,38.87
2018-12-15T10:32:30.652Z,40.17
2018-12-15T10:34:59.281Z,35.13
2018-12-15T10:37:28.163Z,37.10
2018-12-15T10:39:57.004Z,39.37
2018-12-15T10:42:27.148Z,35.47
2018-12-15T10:44:55.879Z,37.13
2018-12-15T10:47:24.432Z,35.23
2018-12-15T10:49:55.152Z,40.47
2018-12-15T10:52:25.717Z,36.70
2018-12-15T10:54:53.852Z,39.33
2018-12-15T10:57:23.209Z,37.57
2018-12-15T10:59:51.539Z,35.97
2018-12-15T11:02:20.563Z,35.90
2018-12-15T11:04:49.634Z,38.17
2018-12-15T11:07:17.934Z,38.30
2018-12-15T11:09:46.141Z,37.93
2018-12-15T11:12:14.574Z,39.13
2018-12-15T11:14:42.796Z,38.33
2018-12-15T11:17:11.428Z,39.23
2018-12-15T11:19:39.823Z,39.03
2018-12-15T11:22:08.505Z,38.33
2018-12-15T11:24:37.260Z,40.23
2018-12-15T11:27:05.937Z,41.10
2018-12-15T11:29:34.593Z,39.80
2018-12-15T11:32:03.692Z,38.00
2018-12-15T11:34:32.462Z,39.57
2018-12-15T11:37:01.552Z,40.93
2018-12-15T11:39:30.108Z,38.80
2018-12-15T11:41:58.746Z,39.60
2018-12-15T11:44:28.291Z,37.93
2018-12-15T11:46:56.605Z,39.67
2018-12-15T11:49:25.984Z,36.50
2018-12-15T11:51:54.747Z,34.90
2018-12-15T11:54:23.377Z,30.13
2018-12-15T11:56:52.773Z,31.27
2018-12-15T11:59:21.409Z,33.93
2018-12-15T12:01:50.672Z,34.03
2018-12-15T12:04:20.041Z,31.43
2018-12-15T12:06:49.601Z,30.33
2018-12-15T12:09:18.189Z,32.17
2018-12-15T12:11:46.944Z,32.50
2018-12-15T12:14:15.570Z,32.37
2018-12-15T12:16:44.313Z,41.47
2018-12-15T12:19:13.606Z,35.33
2018-12-15T12:21:42.257Z,30.87
2018-12-15T12:24:10.975Z,28.93
2018-12-15T12:26:41.797Z,33.87
2018-12-15T12:29:10.654Z,33.53
2018-12-15T12:31:39.348Z,34.40
2018-12-15T12:34:08.109Z,32.23
2018-12-15T12:36:36.846Z,29.53
2018-12-15T12:39:06.996Z,31.37
2018-12-15T12:41:38.030Z,34.63
2018-12-15T12:44:07.587Z,31.47
2018-12-15T12:46:36.786Z,32.83
2018-12-15T12:49:06.253Z,31.10
2018-12-15T12:51:35.006Z,33.07
2018-12-15T12:54:03.819Z,29.83
2018-12-15T12:56:32.650Z,36.20
2018-12-15T12:59:01.429Z,31.93
2018-12-15T13:01:30.149Z,28.20
2018-12-15T13:03:58.957Z,29.87
2018-12-15T13:06:28.343Z,31.83
2018-12-15T13:08:58.127Z,25.30
2018-12-15T13:11:26.957Z,31.70
2018-12-15T13:13:55.739Z,29.47
2018-12-15T13:16:24.506Z,29.27
2018-12-15T13:18:53.280Z,30.83
2018-12-15T13:21:22.052Z,36.03
2018-12-15T13:23:51.936Z,37.47
2018-12-15T13:26:20.793Z,28.50
2018-12-15T13:28:49.621Z,33.60
2018-12-15T13:31:18.470Z,31.43
2018-12-15T13:33:47.466Z,29.97
2018-12-15T13:36:18.763Z,36.47
2018-12-15T13:38:47.602Z,29.33
2018-12-15T13:41:17.606Z,34.60
2018-12-15T13:43:46.422Z,30.90
2018-12-15T13:46:15.952Z,30.83
2018-12-15T13:48:45.759Z,29.37
2018-12-15T13:51:23.240Z,26.00
2018-12-15T13:54:01.829Z,26.43
2018-12-15T13:56:39.227Z,24.67
2018-12-15T13:59:15.176Z,28.17
2018-12-15T14:01:45.372Z,25.17
2018-12-15T14:04:23.233Z,26.37
2018-12-15T14:06:58.849Z,24.00
2018-12-15T14:09:38.106Z,22.73
2018-12-15T14:12:15.045Z,18.83
2018-12-15T14:14:46.328Z,23.73
2018-12-15T14:17:15.189Z,20.27
2018-12-15T14:19:44.861Z,24.53
2018-12-15T14:22:15.005Z,23.67
2018-12-15T14:24:44.340Z,29.90
2018-12-15T14:27:13.824Z,24.93
2018-12-15T14:29:43.248Z,31.73
2018-12-15T14:32:12.790Z,23.57
2018-12-15T14:34:42.308Z,36.90
2018-12-15T14:37:11.595Z,24.67
2018-12-15T14:39:41.054Z,28.93
2018-12-15T14:42:10.636Z,26.47
2018-12-15T14:44:41.061Z,21.77
2018-12-15T14:47:17.971Z,38.30
2018-12-15T14:49:53.960Z,26.90
2018-12-15T14:52:35.459Z,27.63
2018-12-15T14:55:14.920Z,22.97
2018-12-15T14:57:52.722Z,26.77
2018-12-15T15:00:32.032Z,25.60
2018-12-15T15:03:14.068Z,28.50
2018-12-15T15:05:50.330Z,29.33
2018-12-15T15:08:27.299Z,26.77
2018-12-15T15:11:05.532Z,31.60
2018-12-15T15:13:47.459Z,25.20
2018-12-15T15:16:18.649Z,31.17
2018-12-15T15:18:48.158Z,25.57
2018-12-15T15:21:18.095Z,23.57
2018-12-15T15:23:47.550Z,21.87
2018-12-15T15:26:16.293Z,26.77
2018-12-15T15:29:48.545Z,20.43
2018-12-15T15:32:19.590Z,20.80
2018-12-15T15:34:48.381Z,22.90
2018-12-15T15:37:21.179Z,20.70
2018-12-15T15:39:50.001Z,26.83
2018-12-15T15:42:20.164Z,20.83
2018-12-15T15:44:48.913Z,23.80
2018-12-15T15:47:19.219Z,24.20
2018-12-15T15:49:47.932Z,25.77
2018-12-15T15:52:16.704Z,28.63
2018-12-15T15:54:45.479Z,18.83
2018-12-15T15:57:14.918Z,24.73
2018-12-15T15:59:43.908Z,22.80
2018-12-15T16:02:12.755Z,40.33
2018-12-15T16:04:42.738Z,34.07
2018-12-15T16:07:20.647Z,24.10
2018-12-15T16:09:59.383Z,32.30
2018-12-15T16:12:32.308Z,29.77
2018-12-15T16:15:09.195Z,27.83
2018-12-15T16:17:46.368Z,23.63
2018-12-15T16:20:27.103Z,21.50
2018-12-15T16:23:11.055Z,24.47
2018-12-15T16:25:47.926Z,30.07
2018-12-15T16:28:27.258Z,25.63
2018-12-15T16:30:57.381Z,21.83
2018-12-15T16:33:27.423Z,22.13
2018-12-15T16:35:57.255Z,28.33
2018-12-15T16:38:26.705Z,26.63
2018-12-15T16:40:57.498Z,46.73
2018-12-15T16:43:27.025Z,50.77
2018-12-15T16:45:56.620Z,31.00
2018-12-15T16:48:26.064Z,30.27
2018-12-15T16:50:56.951Z,36.07
2018-12-15T16:53:28.128Z,53.23
2018-12-15T16:55:56.986Z,32.10
2018-12-15T16:58:26.476Z,23.00
2018-12-15T17:00:56.183Z,40.47
2018-12-15T17:03:30.482Z,48.33
2018-12-15T17:05:57.096Z,48.93
2018-12-15T17:08:27.051Z,37.87
2018-12-15T17:10:58.110Z,55.87
2018-12-15T17:13:29.026Z,36.53
2018-12-15T17:15:58.737Z,30.70
2018-12-15T17:18:28.500Z,25.10
2018-12-15T17:20:58.266Z,42.43
2018-12-15T17:23:28.200Z,36.57
2018-12-15T17:25:58.860Z,37.93
2018-12-15T17:28:28.793Z,29.10
2018-12-15T17:30:58.793Z,36.87
2018-12-15T17:33:29.564Z,35.67
2018-12-15T17:35:59.111Z,44.87
2018-12-15T17:38:28.958Z,35.70
2018-12-15T17:40:58.770Z,39.60
2018-12-15T17:43:29.321Z,31.33
2018-12-15T17:45:59.013Z,39.73
2018-12-15T17:48:28.925Z,44.30
2018-12-15T17:51:03.236Z,35.90
2018-12-15T17:53:28.650Z,36.53
2018-12-15T17:55:58.442Z,30.10
2018-12-15T17:58:29.423Z,31.10
2018-12-15T18:01:00.328Z,41.13
2018-12-15T18:03:31.344Z,35.13
2018-12-15T18:06:02.759Z,30.83
2018-12-15T18:08:32.547Z,31.33
2018-12-15T18:11:02.016Z,26.27
2018-12-15T18:13:31.984Z,28.57
2018-12-15T18:16:01.779Z,24.40
2018-12-15T18:18:31.336Z,23.47
2018-12-15T18:21:01.501Z,26.27
2018-12-15T18:23:33.747Z,18.00
2018-12-15T18:26:04.190Z,16.80
2018-12-15T18:28:34.648Z,17.47
2018-12-15T18:31:05.037Z,17.23
2018-12-15T18:33:37.121Z,19.73
2018-12-15T18:36:09.435Z,23.30
2018-12-15T18:38:40.066Z,24.77
2018-12-15T18:41:10.031Z,17.93
2018-12-15T18:43:40.137Z,27.57
2018-12-15T18:46:10.205Z,22.83
2018-12-15T18:48:39.724Z,29.90
2018-12-15T18:51:16.343Z,38.70
2018-12-15T18:53:44.498Z,27.20
2018-12-15T18:56:14.146Z,25.73
2018-12-15T18:58:44.830Z,33.63
2018-12-15T19:01:16.063Z,30.90
2018-12-15T19:03:45.948Z,25.90
2018-12-15T19:06:15.541Z,26.60
2018-12-15T19:08:45.447Z,28.33
2018-12-15T19:11:16.893Z,30.30
2018-12-15T19:13:46.476Z,29.20
2018-12-15T19:16:16.313Z,31.00
2018-12-15T19:18:46.120Z,29.63
2018-12-15T19:21:22.912Z,34.10
2018-12-15T19:23:50.053Z,33.90
2018-12-15T19:26:20.152Z,29.97
2018-12-15T19:28:50.668Z,26.23
2018-12-15T19:31:20.184Z,38.90
2018-12-15T19:33:50.748Z,31.40
2018-12-15T19:36:20.678Z,34.37
2018-12-15T19:38:50.515Z,36.03
2018-12-15T19:41:20.654Z,32.57
2018-12-15T19:43:51.019Z,29.47
2018-12-15T19:46:21.278Z,29.83
2018-12-15T19:48:51.285Z,27.63
2018-12-15T19:51:21.050Z,33.57
2018-12-15T19:53:51.392Z,23.87
2018-12-15T19:56:20.178Z,27.13
2018-12-15T19:58:49.041Z,35.77
2018-12-15T20:01:18.712Z,24.50
2018-12-15T20:03:47.926Z,28.20
2018-12-15T20:06:16.877Z,24.03
2018-12-15T20:08:46.693Z,24.07
2018-12-15T20:11:16.709Z,28.47
2018-12-15T20:13:46.272Z,29.07
2018-12-15T20:16:15.745Z,25.17
2018-12-15T20:18:45.544Z,22.97
2018-12-15T20:21:14.952Z,29.17
2018-12-15T20:23:43.789Z,31.23
2018-12-15T20:26:12.803Z,23.33
2018-12-15T20:28:41.634Z,22.53
2018-12-15T20:31:11.456Z,26.90
2018-12-15T20:33:44.362Z,27.60
2018-12-15T20:36:14.305Z,17.83
2018-12-15T20:38:43.870Z,21.23
2018-12-15T20:41:13.229Z,21.23
2018-12-15T20:43:42.905Z,27.17
2018-12-15T20:46:13.658Z,26.23
2018-12-15T20:48:43.517Z,25.77
2018-12-15T20:51:12.885Z,30.03
2018-12-15T20:53:43.009Z,32.13
2018-12-15T20:56:12.274Z,29.97
2018-12-15T20:58:41.740Z,27.00
2018-12-15T21:01:11.173Z,34.23
2018-12-15T21:03:40.877Z,22.43
2018-12-15T21:06:10.305Z,26.20
2018-12-15T21:08:40.481Z,30.47
2018-12-15T21:11:11.049Z,23.23
2018-12-15T21:13:42.014Z,30.47
2018-12-15T21:16:11.473Z,23.23
2018-12-15T21:18:40.945Z,38.57
2018-12-15T21:21:10.381Z,36.77
2018-12-15T21:23:40.397Z,31.00
2018-12-15T21:26:10.014Z,32.60
2018-12-15T21:28:39.792Z,30.77
2018-12-15T21:31:08.449Z,34.67
2018-12-15T21:33:37.231Z,27.23
2018-12-15T21:36:05.956Z,26.03
2018-12-15T21:38:35.783Z,38.10
2018-12-15T21:41:05.524Z,33.20
2018-12-15T21:43:35.121Z,26.40
2018-12-15T21:46:04.811Z,24.63
2018-12-15T21:48:36.499Z,24.83
2018-12-15T21:51:05.951Z,26.10
2018-12-15T21:53:35.125Z,24.17
2018-12-15T21:56:04.784Z,23.03
2018-12-15T21:58:33.857Z,28.87
2018-12-15T22:01:04.271Z,23.30
2018-12-15T22:03:33.252Z,29.00
2018-12-15T22:06:02.667Z,26.17
2018-12-15T22:08:31.963Z,25.37
2018-12-15T22:11:00.944Z,25.33
2018-12-15T22:13:30.177Z,25.73
2018-12-15T22:15:58.995Z,21.73
2018-12-15T22:18:28.193Z,23.80
2018-12-15T22:20:57.259Z,24.43
2018-12-15T22:23:26.064Z,20.80
2018-12-15T22:26:00.273Z,22.00
2018-12-15T22:28:28.951Z,24.90
2018-12-15T22:30:57.620Z,26.77
2018-12-15T22:33:26.341Z,22.10
2018-12-15T22:35:55.006Z,30.57
2018-12-15T22:38:23.717Z,25.93
2018-12-15T22:40:52.661Z,26.50
2018-12-15T22:43:21.369Z,23.63
2018-12-15T22:45:49.980Z,20.60
2018-12-15T22:48:18.662Z,19.30
2018-12-15T22:50:48.813Z,21.97
2018-12-15T22:53:17.446Z,26.07
2018-12-15T22:55:46.148Z,24.03
2018-12-15T22:58:14.642Z,23.03
2018-12-15T23:00:49.132Z,22.20
2018-12-15T23:03:19.768Z,22.70
2018-12-15T23:05:48.229Z,21.13
2018-12-15T23:08:17.826Z,20.97
2018-12-15T23:10:46.647Z,19.93
2018-12-15T23:13:15.328Z,28.90
2018-12-15T23:15:44.054Z,22.50
2018-12-15T23:18:12.690Z,21.63
2018-12-15T23:20:41.581Z,23.63
2018-12-15T23:23:10.289Z,27.67
2018-12-15T23:25:38.766Z,23.17
2018-12-15T23:28:07.437Z,21.77
2018-12-15T23:30:35.942Z,19.87
2018-12-15T23:33:04.875Z,19.93
2018-12-15T23:35:33.707Z,22.27
2018-12-15T23:38:02.430Z,35.97
2018-12-15T23:40:32.091Z,24.80
2018-12-15T23:43:00.810Z,24.67
2018-12-15T23:45:29.282Z,30.13
2018-12-15T23:47:57.719Z,29.57
2018-12-15T23:50:27.615Z,22.57
2018-12-15T23:52:56.580Z,29.77
2018-12-15T23:55:25.235Z,29.73
2018-12-15T23:57:53.733Z,29.53
